createdAt,value
2023-02-19T00:01:39.892Z,10.88
2023-02-19T00:03:42.468Z,11.35
2023-02-19T00:05:44.076Z,11.35
2023-02-19T00:07:45.630Z,13.00
2023-02-19T00:09:47.185Z,12.55
2023-02-19T00:11:49.700Z,12.55
2023-02-19T00:13:53.321Z,13.55
2023-02-19T00:15:56.361Z,13.30
2023-02-19T00:17:58.036Z,12.17
2023-02-19T00:19:59.654Z,12.75
2023-02-19T00:22:01.250Z,13.68
2023-02-19T00:24:04.978Z,12.13
2023-02-19T00:26:18.179Z,11.30
2023-02-19T00:28:20.606Z,10.98
2023-02-19T00:30:22.261Z,11.75
2023-02-19T00:32:23.876Z,12.32
2023-02-19T00:34:25.525Z,12.27
2023-02-19T00:36:28.162Z,12.65
2023-02-19T00:38:30.455Z,12.13
2023-02-19T00:40:32.061Z,13.30
2023-02-19T00:42:33.627Z,12.75
2023-02-19T00:44:35.243Z,13.00
2023-02-19T00:46:40.471Z,12.90
2023-02-19T00:48:42.094Z,11.38
2023-02-19T00:50:44.044Z,14.15
2023-02-19T00:52:45.678Z,12.82
2023-02-19T00:54:47.278Z,12.30
2023-02-19T00:56:49.314Z,11.98
2023-02-19T00:58:51.210Z,13.50
2023-02-19T01:00:52.811Z,12.55
2023-02-19T01:02:54.436Z,13.25
2023-02-19T01:04:56.037Z,11.82
2023-02-19T01:06:57.811Z,10.40
2023-02-19T01:08:59.439Z,10.38
2023-02-19T01:11:02.340Z,9.82
2023-02-19T01:13:03.920Z,10.52
2023-02-19T01:15:05.727Z,9.88
2023-02-19T01:17:07.319Z,10.75
2023-02-19T01:19:08.999Z,11.02
2023-02-19T01:21:13.489Z,11.15
2023-02-19T01:23:15.091Z,10.57
2023-02-19T01:25:16.838Z,10.23
2023-02-19T01:27:18.478Z,9.27
2023-02-19T01:29:20.084Z,9.77
2023-02-19T01:31:23.959Z,9.52
2023-02-19T01:33:25.728Z,10.32
2023-02-19T01:35:27.346Z,9.63
2023-02-19T01:37:29.216Z,9.95
2023-02-19T01:39:30.907Z,10.18
2023-02-19T01:41:35.880Z,9.82
2023-02-19T01:43:59.445Z,11.20
2023-02-19T01:46:01.444Z,9.88
2023-02-19T01:48:03.147Z,9.65
2023-02-19T01:50:05.034Z,10.10
2023-02-19T01:52:14.493Z,9.63
2023-02-19T01:54:18.093Z,10.45
2023-02-19T01:56:20.074Z,9.82
2023-02-19T01:58:22.666Z,9.73
2023-02-19T02:00:24.904Z,10.20
2023-02-19T02:02:28.434Z,10.80
2023-02-19T02:04:31.206Z,10.18
2023-02-19T02:06:51.695Z,9.20
2023-02-19T02:09:16.481Z,9.90
2023-02-19T02:11:19.130Z,9.18
2023-02-19T02:13:20.828Z,10.85
2023-02-19T02:15:24.247Z,9.98
2023-02-19T02:17:34.733Z,10.40
2023-02-19T02:20:07.271Z,10.07
2023-02-19T02:22:17.866Z,11.13
2023-02-19T02:24:38.042Z,10.30
2023-02-19T02:26:45.644Z,10.32
2023-02-19T02:28:56.062Z,10.05
2023-02-19T02:31:06.038Z,10.30
2023-02-19T02:33:39.807Z,10.15
2023-02-19T02:35:51.525Z,10.45
2023-02-19T02:37:55.742Z,10.00
2023-02-19T02:39:59.117Z,10.27
2023-02-19T02:42:19.296Z,10.18
2023-02-19T02:44:20.898Z,11.05
2023-02-19T02:46:26.485Z,10.23
2023-02-19T02:48:41.741Z,10.75
2023-02-19T02:50:54.127Z,10.55
2023-02-19T02:53:20.955Z,10.00
2023-02-19T02:55:22.842Z,10.15
2023-02-19T02:57:24.530Z,9.52
2023-02-19T02:59:29.322Z,9.73
2023-02-19T03:01:58.611Z,9.80
2023-02-19T03:04:04.094Z,10.07
2023-02-19T03:06:07.336Z,10.32
2023-02-19T03:08:15.842Z,10.48
2023-02-19T03:10:20.960Z,10.43
2023-02-19T03:12:41.931Z,10.60
2023-02-19T03:15:10.502Z,11.63
2023-02-19T03:17:52.615Z,11.32
2023-02-19T03:19:57.151Z,11.13
2023-02-19T03:22:20.033Z,10.60
2023-02-19T03:24:43.976Z,10.55
2023-02-19T03:26:45.828Z,11.05
2023-02-19T03:29:08.013Z,10.90
2023-02-19T03:31:13.553Z,11.38
2023-02-19T03:33:27.008Z,11.10
2023-02-19T03:35:32.370Z,10.47
2023-02-19T03:37:44.662Z,10.68
2023-02-19T03:39:46.194Z,11.25
2023-02-19T03:42:13.900Z,11.13
2023-02-19T03:44:18.371Z,11.00
2023-02-19T03:46:30.353Z,11.13
2023-02-19T03:48:37.040Z,10.45
2023-02-19T03:50:59.160Z,11.10
2023-02-19T03:53:12.733Z,10.65
2023-02-19T03:55:31.564Z,10.90
2023-02-19T03:57:47.242Z,11.40
2023-02-19T03:59:57.332Z,11.13
2023-02-19T04:02:04.515Z,10.70
2023-02-19T04:04:19.737Z,11.27
2023-02-19T04:06:26.763Z,10.15
2023-02-19T04:08:29.187Z,10.20
2023-02-19T04:10:31.964Z,10.88
2023-02-19T04:12:34.021Z,9.68
2023-02-19T04:15:02.734Z,9.73
2023-02-19T04:17:17.168Z,8.77
2023-02-19T04:19:20.952Z,8.45
2023-02-19T04:21:24.873Z,8.77
2023-02-19T04:25:29.484Z,9.48
2023-02-19T04:27:31.309Z,9.38
2023-02-19T04:29:32.992Z,9.27
2023-02-19T04:31:35.820Z,9.95
2023-02-19T04:33:38.052Z,10.68
2023-02-19T04:35:39.664Z,10.02
2023-02-19T04:37:41.252Z,11.20
2023-02-19T04:39:42.875Z,10.18
2023-02-19T04:41:44.589Z,10.13
2023-02-19T04:43:46.159Z,9.20
2023-02-19T04:45:47.785Z,12.68
2023-02-19T04:48:08.705Z,10.80
2023-02-19T04:50:10.357Z,8.80
2023-02-19T04:52:12.165Z,9.32
2023-02-19T04:54:13.767Z,9.52
2023-02-19T04:56:16.766Z,9.77
2023-02-19T04:58:18.393Z,10.07
2023-02-19T05:00:20.156Z,8.93
2023-02-19T05:02:21.730Z,9.23
2023-02-19T05:04:24.038Z,7.68
2023-02-19T05:06:25.719Z,7.95
2023-02-19T05:08:27.278Z,6.85
2023-02-19T05:10:28.915Z,6.70
2023-02-19T05:12:31.202Z,5.93
2023-02-19T05:14:32.872Z,5.95
2023-02-19T05:16:34.505Z,5.82
2023-02-19T05:18:36.290Z,5.45
2023-02-19T05:20:37.872Z,5.63
2023-02-19T05:22:39.464Z,6.28
2023-02-19T05:24:41.034Z,5.13
2023-02-19T05:26:45.130Z,5.50
2023-02-19T05:28:48.779Z,5.22
2023-02-19T05:30:51.940Z,5.25
2023-02-19T05:32:53.501Z,4.65
2023-02-19T05:34:55.159Z,4.93
2023-02-19T05:36:56.766Z,4.57
2023-02-19T05:38:58.729Z,5.30
2023-02-19T05:41:26.935Z,4.25
2023-02-19T05:43:28.488Z,4.80
2023-02-19T05:45:30.448Z,4.78
2023-02-19T05:47:32.076Z,4.53
2023-02-19T05:49:33.668Z,4.90
2023-02-19T05:51:35.263Z,4.93
2023-02-19T05:53:37.486Z,4.47
2023-02-19T05:55:39.064Z,4.88
2023-02-19T05:57:45.307Z,5.25
2023-02-19T05:59:46.875Z,4.78
2023-02-19T06:01:49.944Z,5.30
2023-02-19T06:03:51.653Z,6.32
2023-02-19T06:05:53.260Z,4.72
2023-02-19T06:07:54.862Z,5.00
2023-02-19T06:09:56.474Z,4.80
2023-02-19T06:11:58.201Z,4.43
2023-02-19T06:13:59.836Z,4.90
2023-02-19T06:16:04.790Z,5.80
2023-02-19T06:18:06.321Z,4.60
2023-02-19T06:20:08.333Z,5.28
2023-02-19T06:22:10.240Z,5.05
2023-02-19T06:24:11.850Z,5.15
2023-02-19T06:26:16.189Z,4.80
2023-02-19T06:28:17.800Z,5.18
2023-02-19T06:30:19.570Z,4.95
2023-02-19T06:32:21.335Z,5.07
2023-02-19T06:34:23.062Z,5.57
2023-02-19T06:36:25.060Z,5.28
2023-02-19T06:38:27.188Z,5.82
2023-02-19T06:40:29.057Z,5.40
2023-02-19T06:42:33.758Z,4.78
2023-02-19T06:44:35.444Z,5.35
2023-02-19T06:46:37.186Z,5.90
2023-02-19T06:48:39.762Z,6.00
2023-02-19T06:50:41.390Z,5.32
2023-02-19T06:52:42.943Z,5.20
2023-02-19T06:54:44.550Z,6.22
2023-02-19T06:56:47.140Z,5.55
2023-02-19T06:58:48.907Z,5.88
2023-02-19T07:00:50.497Z,5.78
2023-02-19T07:02:56.592Z,5.82
2023-02-19T07:04:58.247Z,7.05
2023-02-19T07:07:00.374Z,6.78
2023-02-19T07:09:04.005Z,7.45
2023-02-19T07:13:07.176Z,7.65
2023-02-19T07:15:09.215Z,7.65
2023-02-19T07:17:10.882Z,6.45
2023-02-19T07:19:12.807Z,7.28
2023-02-19T07:21:15.816Z,6.80
2023-02-19T07:23:17.431Z,7.82
2023-02-19T07:25:19.052Z,7.13
2023-02-19T07:27:20.667Z,6.97
2023-02-19T07:29:22.310Z,7.90
2023-02-19T07:31:24.748Z,6.32
2023-02-19T07:33:26.608Z,6.50
2023-02-19T07:35:28.298Z,6.50
2023-02-19T07:37:30.015Z,5.60
2023-02-19T07:39:31.699Z,6.47
2023-02-19T07:41:33.351Z,6.55
2023-02-19T07:43:36.642Z,7.55
2023-02-19T07:45:38.323Z,6.90
2023-02-19T07:47:40.022Z,5.75
2023-02-19T07:49:41.643Z,5.93
2023-02-19T07:51:44.353Z,5.45
2023-02-19T07:53:46.785Z,6.10
2023-02-19T07:55:48.530Z,6.22
2023-02-19T07:57:50.163Z,5.93
2023-02-19T07:59:52.073Z,6.30
2023-02-19T08:02:12.186Z,5.85
2023-02-19T08:04:14.534Z,6.05
2023-02-19T08:06:16.115Z,5.88
2023-02-19T08:08:17.884Z,6.60
2023-02-19T08:10:38.382Z,6.18
2023-02-19T08:12:58.772Z,6.47
2023-02-19T08:15:00.360Z,5.28
2023-02-19T08:17:02.140Z,6.38
2023-02-19T08:19:04.093Z,5.65
2023-02-19T08:21:06.018Z,5.60
2023-02-19T08:23:07.782Z,5.20
2023-02-19T08:25:09.613Z,4.82
2023-02-19T08:27:11.394Z,4.68
2023-02-19T08:29:13.010Z,4.25
2023-02-19T08:31:15.211Z,4.68
2023-02-19T08:33:19.191Z,3.88
2023-02-19T08:37:22.229Z,4.13
2023-02-19T08:39:23.917Z,4.03
2023-02-19T08:41:25.612Z,4.63
2023-02-19T08:43:27.341Z,3.80
2023-02-19T08:45:28.955Z,4.43
2023-02-19T08:47:30.623Z,4.00
2023-02-19T08:49:32.270Z,4.07
2023-02-19T08:51:33.876Z,4.30
2023-02-19T08:53:36.916Z,4.38
2023-02-19T08:55:39.066Z,4.82
2023-02-19T08:57:40.738Z,4.50
2023-02-19T08:59:42.310Z,4.07
2023-02-19T09:01:44.054Z,4.47
2023-02-19T09:03:45.826Z,4.00
2023-02-19T09:05:48.092Z,3.75
2023-02-19T09:07:49.953Z,4.03
2023-02-19T09:09:51.652Z,4.28
2023-02-19T09:11:53.289Z,4.95
2023-02-19T09:13:56.552Z,4.15
2023-02-19T09:15:58.274Z,4.15
2023-02-19T09:18:00.157Z,4.22
2023-02-19T09:20:02.125Z,4.18
2023-02-19T09:22:05.103Z,4.20
2023-02-19T09:24:09.587Z,4.53
2023-02-19T09:26:11.637Z,4.10
2023-02-19T09:28:13.389Z,3.90
2023-02-19T09:30:15.359Z,3.60
2023-02-19T09:32:19.073Z,3.83
2023-02-19T09:34:20.957Z,4.07
2023-02-19T09:36:22.712Z,4.20
2023-02-19T09:38:24.379Z,3.22
2023-02-19T09:40:26.033Z,4.50
2023-02-19T09:42:30.545Z,5.28
2023-02-19T09:44:35.101Z,3.35
2023-02-19T09:46:46.418Z,4.13
2023-02-19T09:48:48.445Z,3.72
2023-02-19T09:50:50.090Z,3.80
2023-02-19T09:52:53.857Z,4.30
2023-02-19T09:57:01.667Z,5.22
2023-02-19T09:59:03.493Z,5.38
2023-02-19T10:01:07.869Z,4.10
2023-02-19T10:03:17.622Z,4.95
2023-02-19T10:05:19.462Z,3.85
2023-02-19T10:07:26.927Z,4.55
2023-02-19T10:09:30.147Z,3.88
2023-02-19T10:11:31.766Z,4.45
2023-02-19T10:13:36.621Z,4.18
2023-02-19T10:15:50.520Z,4.05
2023-02-19T10:17:52.401Z,4.28
2023-02-19T10:19:54.115Z,4.53
2023-02-19T10:21:56.866Z,4.68
2023-02-19T10:24:01.517Z,6.70
2023-02-19T10:26:03.143Z,5.20
2023-02-19T10:28:04.987Z,6.05
2023-02-19T10:30:07.872Z,4.82
2023-02-19T10:32:20.963Z,4.80
2023-02-19T10:34:23.113Z,4.78
2023-02-19T10:36:34.276Z,4.82
2023-02-19T10:38:39.361Z,8.02
2023-02-19T10:40:44.504Z,5.88
2023-02-19T10:42:51.272Z,8.05
2023-02-19T10:45:01.757Z,5.38
2023-02-19T10:47:03.564Z,5.85
2023-02-19T10:49:07.143Z,4.75
2023-02-19T10:51:11.639Z,5.50
2023-02-19T10:53:25.497Z,5.20
2023-02-19T10:55:30.550Z,6.78
2023-02-19T10:57:34.171Z,5.30
2023-02-19T10:59:35.809Z,8.65
2023-02-19T11:01:39.583Z,7.40
2023-02-19T11:06:06.653Z,6.90
2023-02-19T11:08:21.813Z,5.60
2023-02-19T11:10:27.948Z,4.25
2023-02-19T11:12:33.509Z,3.78
2023-02-19T11:14:35.140Z,2.92
2023-02-19T11:16:50.174Z,3.03
2023-02-19T11:18:57.317Z,3.03
2023-02-19T11:21:04.449Z,4.90
2023-02-19T11:23:24.580Z,4.10
2023-02-19T11:25:26.863Z,3.80
2023-02-19T11:27:28.686Z,3.20
2023-02-19T11:29:35.016Z,2.88
2023-02-19T11:31:36.757Z,3.10
2023-02-19T11:33:54.475Z,2.75
2023-02-19T11:36:20.849Z,2.45
2023-02-19T11:38:22.588Z,2.80
2023-02-19T11:41:01.645Z,4.65
2023-02-19T11:43:08.113Z,2.90
2023-02-19T11:45:24.651Z,2.45
2023-02-19T11:47:44.899Z,2.70
2023-02-19T11:49:55.668Z,2.15
2023-02-19T11:52:45.231Z,2.50
2023-02-19T11:54:52.006Z,2.80
2023-02-19T11:57:02.662Z,2.90
2023-02-19T11:59:05.446Z,2.22
2023-02-19T12:01:38.418Z,2.70
2023-02-19T12:03:48.969Z,2.55
2023-02-19T12:05:58.380Z,2.55
2023-02-19T12:08:18.376Z,2.70
2023-02-19T12:10:25.997Z,2.90
2023-02-19T12:12:37.913Z,2.53
2023-02-19T12:15:11.717Z,3.10
2023-02-19T12:17:32.138Z,2.85
2023-02-19T12:19:51.915Z,3.10
2023-02-19T12:22:05.688Z,3.05
2023-02-19T12:24:32.208Z,2.35
2023-02-19T12:26:52.346Z,2.72
2023-02-19T12:29:31.466Z,2.90
2023-02-19T12:32:00.455Z,2.90
2023-02-19T12:34:10.867Z,3.22
2023-02-19T12:36:30.878Z,2.75
2023-02-19T12:38:39.506Z,2.80
2023-02-19T12:40:56.076Z,3.22
2023-02-19T12:43:09.091Z,3.22
2023-02-19T12:45:16.636Z,3.03
2023-02-19T12:47:28.651Z,3.00
2023-02-19T12:49:39.120Z,3.42
2023-02-19T12:51:55.275Z,3.47
2023-02-19T12:54:06.384Z,3.20
2023-02-19T12:56:15.125Z,3.38
2023-02-19T12:58:32.227Z,3.00
2023-02-19T13:00:39.592Z,3.15
2023-02-19T13:02:50.517Z,4.00
2023-02-19T13:05:14.396Z,6.18
2023-02-19T13:07:38.900Z,4.10
2023-02-19T13:12:18.323Z,3.33
2023-02-19T13:14:31.194Z,3.40
2023-02-19T13:16:35.086Z,3.40
2023-02-19T13:19:03.031Z,3.42
2023-02-19T13:21:06.363Z,3.67
2023-02-19T13:23:35.323Z,3.45
2023-02-19T13:26:14.720Z,2.97
2023-02-19T13:28:36.651Z,3.00
2023-02-19T13:30:53.758Z,3.47
2023-02-19T13:33:32.742Z,3.15
2023-02-19T13:36:06.295Z,3.35
2023-02-19T13:38:10.251Z,3.50
2023-02-19T13:40:35.524Z,3.67
2023-02-19T13:42:37.213Z,4.10
2023-02-19T13:44:41.148Z,4.25
2023-02-19T13:46:45.128Z,3.97
2023-02-19T13:48:46.789Z,4.15
2023-02-19T13:50:48.388Z,3.97
2023-02-19T13:52:54.648Z,3.92
2023-02-19T13:55:33.424Z,3.47
2023-02-19T13:57:35.303Z,3.67
2023-02-19T13:59:39.296Z,3.53
2023-02-19T14:01:49.671Z,3.30
2023-02-19T14:04:08.088Z,3.30
2023-02-19T14:06:10.150Z,4.18
2023-02-19T14:08:11.804Z,4.20
2023-02-19T14:10:34.507Z,4.05
2023-02-19T14:12:37.388Z,3.78
2023-02-19T14:14:53.433Z,4.45
2023-02-19T14:17:04.475Z,4.25
2023-02-19T14:19:18.782Z,4.38
2023-02-19T14:21:28.480Z,4.68
2023-02-19T14:23:30.107Z,4.50
2023-02-19T14:25:44.879Z,4.75
2023-02-19T14:27:46.593Z,4.10
2023-02-19T14:29:48.690Z,4.32
2023-02-19T14:31:50.353Z,4.07
2023-02-19T14:33:54.582Z,3.97
2023-02-19T14:36:00.089Z,3.80
2023-02-19T14:38:02.362Z,4.35
2023-02-19T14:40:04.669Z,4.50
2023-02-19T14:42:12.673Z,4.18
2023-02-19T14:44:26.392Z,4.28
2023-02-19T14:46:35.124Z,3.95
2023-02-19T14:48:41.736Z,4.47
2023-02-19T14:50:47.023Z,3.67
2023-02-19T14:52:50.255Z,4.35
2023-02-19T14:54:58.294Z,3.85
2023-02-19T14:57:00.823Z,3.92
2023-02-19T14:59:11.272Z,3.95
2023-02-19T15:01:27.059Z,3.65
2023-02-19T15:03:35.578Z,4.47
2023-02-19T15:05:37.670Z,4.80
2023-02-19T15:07:41.592Z,4.53
2023-02-19T15:09:47.053Z,4.90
2023-02-19T15:11:48.930Z,4.63
2023-02-19T15:13:52.533Z,5.00
2023-02-19T15:15:55.362Z,4.70
2023-02-19T15:17:57.833Z,5.38
2023-02-19T15:20:03.537Z,4.78
2023-02-19T15:22:05.335Z,5.25
2023-02-19T15:24:07.486Z,4.80
2023-02-19T15:26:22.239Z,6.28
2023-02-19T15:28:23.768Z,5.57
2023-02-19T15:30:29.575Z,5.28
2023-02-19T15:32:32.661Z,6.30
2023-02-19T15:34:34.349Z,5.15
2023-02-19T15:36:36.066Z,5.00
2023-02-19T15:38:37.707Z,5.32
2023-02-19T15:40:39.563Z,5.57
2023-02-19T15:42:44.413Z,5.15
2023-02-19T15:44:49.063Z,5.10
2023-02-19T15:46:50.947Z,5.03
2023-02-19T15:49:11.458Z,5.95
2023-02-19T15:51:18.793Z,5.55
2023-02-19T15:53:23.750Z,5.72
2023-02-19T15:55:39.474Z,6.00
2023-02-19T15:57:45.382Z,6.45
2023-02-19T16:00:01.268Z,8.00
2023-02-19T16:02:04.369Z,7.45
2023-02-19T16:04:14.746Z,7.80
2023-02-19T16:06:17.920Z,7.32
2023-02-19T16:08:21.035Z,8.02
2023-02-19T16:10:24.125Z,7.97
2023-02-19T16:12:27.364Z,6.13
2023-02-19T16:14:30.246Z,5.40
2023-02-19T16:16:36.457Z,5.07
2023-02-19T16:18:38.194Z,5.47
2023-02-19T16:20:39.798Z,5.03
2023-02-19T16:22:42.832Z,5.82
2023-02-19T16:24:46.839Z,6.38
2023-02-19T16:26:48.492Z,5.45
2023-02-19T16:28:52.098Z,5.03
2023-02-19T16:31:08.508Z,4.82
2023-02-19T16:33:35.758Z,5.05
2023-02-19T16:35:40.260Z,5.43
2023-02-19T16:37:57.828Z,5.88
2023-02-19T16:40:08.405Z,6.85
2023-02-19T16:42:14.510Z,7.85
2023-02-19T16:44:36.338Z,10.63
2023-02-19T16:46:40.874Z,10.20
2023-02-19T16:48:42.521Z,11.10
2023-02-19T16:50:46.316Z,10.45
2023-02-19T16:54:56.290Z,9.35
2023-02-19T16:56:57.896Z,8.90
2023-02-19T16:58:59.438Z,8.63
2023-02-19T17:01:01.811Z,8.95
2023-02-19T17:03:09.199Z,10.77
2023-02-19T17:05:10.917Z,10.40
2023-02-19T17:07:14.817Z,10.77
2023-02-19T17:09:16.454Z,12.65
2023-02-19T17:11:18.461Z,10.52
2023-02-19T17:13:20.040Z,8.52
2023-02-19T17:15:22.282Z,6.75
2023-02-19T17:17:23.902Z,7.18
2023-02-19T17:19:25.460Z,6.65
2023-02-19T17:21:28.867Z,8.38
2023-02-19T17:23:30.497Z,8.68
2023-02-19T17:25:32.171Z,13.50
2023-02-19T17:27:33.826Z,11.05
2023-02-19T17:29:37.180Z,10.38
2023-02-19T17:31:38.862Z,8.93
2023-02-19T17:33:41.194Z,7.75
2023-02-19T17:35:44.855Z,8.55
2023-02-19T17:37:46.527Z,9.10
2023-02-19T17:39:49.244Z,9.88
2023-02-19T17:41:51.184Z,13.48
2023-02-19T17:43:53.332Z,12.02
2023-02-19T17:45:54.943Z,12.27
2023-02-19T17:47:56.549Z,11.65
2023-02-19T17:49:58.106Z,8.10
2023-02-19T17:51:59.668Z,8.07
2023-02-19T17:54:01.606Z,8.68
2023-02-19T17:56:03.555Z,8.32
2023-02-19T17:58:05.086Z,8.35
2023-02-19T18:00:07.797Z,9.05
2023-02-19T18:02:09.332Z,8.15
2023-02-19T18:04:10.958Z,8.38
2023-02-19T18:06:12.935Z,8.30
2023-02-19T18:08:14.955Z,10.02
2023-02-19T18:10:18.564Z,12.98
2023-02-19T18:12:20.148Z,19.92
2023-02-19T18:14:21.768Z,29.27
2023-02-19T18:16:23.464Z,11.15
2023-02-19T18:18:25.088Z,11.98
2023-02-19T18:20:28.621Z,8.50
2023-02-19T18:22:31.033Z,9.13
2023-02-19T18:24:32.737Z,6.72
2023-02-19T18:26:34.370Z,7.38
2023-02-19T18:28:36.498Z,8.18
2023-02-19T18:30:38.205Z,5.63
2023-02-19T18:32:39.841Z,5.65
2023-02-19T18:34:41.416Z,5.88
2023-02-19T18:36:46.978Z,5.43
2023-02-19T18:38:48.604Z,5.60
2023-02-19T18:40:50.174Z,6.07
2023-02-19T18:42:52.198Z,6.00
2023-02-19T18:44:54.351Z,5.57
2023-02-19T18:46:56.051Z,5.47
2023-02-19T18:48:58.010Z,5.63
2023-02-19T18:50:59.608Z,5.75
2023-02-19T18:53:01.333Z,5.53
2023-02-19T18:55:03.147Z,6.22
2023-02-19T18:57:04.793Z,5.78
2023-02-19T18:59:06.439Z,5.38
2023-02-19T19:01:08.093Z,6.25
2023-02-19T19:03:09.814Z,6.40
2023-02-19T19:05:13.325Z,5.75
2023-02-19T19:07:15.095Z,5.20
2023-02-19T19:09:16.687Z,5.57
2023-02-19T19:11:18.421Z,5.50
2023-02-19T19:13:20.040Z,6.00
2023-02-19T19:15:22.256Z,6.25
2023-02-19T19:17:23.822Z,5.80
2023-02-19T19:19:25.383Z,5.72
2023-02-19T19:21:27.269Z,5.80
2023-02-19T19:23:29.057Z,5.82
2023-02-19T19:25:30.692Z,6.95
2023-02-19T19:27:32.338Z,7.00
2023-02-19T19:29:33.904Z,6.43
2023-02-19T19:31:36.499Z,8.93
2023-02-19T19:33:38.450Z,8.40
2023-02-19T19:35:40.020Z,8.25
2023-02-19T19:37:41.615Z,8.50
2023-02-19T19:39:44.103Z,7.63
2023-02-19T19:41:45.679Z,6.80
2023-02-19T19:43:47.268Z,7.10
2023-02-19T19:45:50.040Z,6.25
2023-02-19T19:47:52.937Z,6.25
2023-02-19T19:49:54.501Z,5.83
2023-02-19T19:52:01.067Z,5.70
2023-02-19T19:54:04.186Z,5.43
2023-02-19T19:56:06.441Z,5.25
2023-02-19T19:58:08.302Z,5.30
2023-02-19T20:00:13.818Z,5.70
2023-02-19T20:02:15.381Z,5.57
2023-02-19T20:04:18.271Z,5.60
2023-02-19T20:06:31.000Z,5.40
2023-02-19T20:08:32.628Z,5.47
2023-02-19T20:10:34.287Z,5.50
2023-02-19T20:12:36.217Z,5.32
2023-02-19T20:14:37.878Z,5.10
2023-02-19T20:16:39.465Z,5.68
2023-02-19T20:18:41.590Z,5.80
2023-02-19T20:20:43.197Z,6.05
2023-02-19T20:22:44.877Z,6.55
2023-02-19T20:24:51.286Z,6.03
2023-02-19T20:27:01.932Z,5.88
2023-02-19T20:29:06.083Z,6.45
2023-02-19T20:31:08.452Z,6.78
2023-02-19T20:33:10.137Z,5.63
2023-02-19T20:35:11.925Z,6.10
2023-02-19T20:37:14.186Z,6.60
2023-02-19T20:39:17.109Z,5.88
2023-02-19T20:41:18.726Z,6.53
2023-02-19T20:43:20.356Z,5.47
2023-02-19T20:45:22.105Z,5.97
2023-02-19T20:47:23.747Z,6.85
2023-02-19T20:49:27.980Z,7.15
2023-02-19T20:51:29.517Z,6.18
2023-02-19T20:53:32.039Z,6.90
2023-02-19T20:55:33.707Z,7.22
2023-02-19T20:57:35.320Z,6.70
2023-02-19T20:59:38.683Z,7.60
2023-02-19T21:01:40.562Z,6.95
2023-02-19T21:03:42.210Z,6.47
2023-02-19T21:05:44.019Z,6.40
2023-02-19T21:07:46.290Z,7.50
2023-02-19T21:09:47.858Z,7.07
2023-02-19T21:11:50.004Z,7.07
2023-02-19T21:13:51.598Z,7.43
2023-02-19T21:15:53.402Z,7.88
2023-02-19T21:17:55.026Z,6.93
2023-02-19T21:19:56.606Z,7.25
2023-02-19T21:21:58.329Z,7.07
2023-02-19T21:24:00.435Z,6.80
2023-02-19T21:26:02.960Z,7.60
2023-02-19T21:28:05.742Z,7.25
2023-02-19T21:30:07.905Z,7.85
2023-02-19T21:32:09.724Z,7.57
2023-02-19T21:34:13.317Z,7.75
2023-02-19T21:36:15.152Z,7.10
2023-02-19T21:38:16.732Z,7.20
2023-02-19T21:40:18.432Z,7.65
2023-02-19T21:42:20.011Z,6.85
2023-02-19T21:44:21.805Z,7.45
2023-02-19T21:46:24.315Z,7.18
2023-02-19T21:48:25.931Z,6.75
2023-02-19T21:50:27.550Z,7.63
2023-02-19T21:52:31.088Z,7.72
2023-02-19T21:54:32.735Z,7.82
2023-02-19T21:56:36.460Z,7.78
2023-02-19T21:58:38.298Z,6.75
2023-02-19T22:00:39.937Z,7.30
2023-02-19T22:02:42.153Z,6.88
2023-02-19T22:04:43.764Z,7.22
2023-02-19T22:06:45.363Z,7.72
2023-02-19T22:08:46.963Z,7.32
2023-02-19T22:10:48.496Z,7.45
2023-02-19T22:12:50.124Z,6.80
2023-02-19T22:14:52.840Z,7.07
2023-02-19T22:16:54.455Z,7.03
2023-02-19T22:18:58.315Z,7.35
2023-02-19T22:23:01.751Z,7.00
2023-02-19T22:25:03.442Z,7.38
2023-02-19T22:27:05.192Z,7.22
2023-02-19T22:29:08.348Z,6.82
2023-02-19T22:31:10.092Z,7.35
2023-02-19T22:33:11.765Z,7.28
2023-02-19T22:35:15.437Z,7.15
2023-02-19T22:37:17.427Z,7.35
2023-02-19T22:39:27.769Z,7.40
2023-02-19T22:41:29.481Z,6.65
2023-02-19T22:43:31.093Z,7.35
2023-02-19T22:45:32.712Z,7.32
2023-02-19T22:47:34.312Z,7.75
2023-02-19T22:49:38.503Z,7.72
2023-02-19T22:51:40.131Z,7.82
2023-02-19T22:53:53.186Z,7.05
2023-02-19T22:55:54.867Z,7.78
2023-02-19T22:57:56.547Z,7.60
2023-02-19T22:59:58.114Z,7.45
2023-02-19T23:01:59.684Z,7.63
2023-02-19T23:04:01.436Z,7.75
2023-02-19T23:06:04.546Z,7.07
2023-02-19T23:08:06.258Z,7.85
2023-02-19T23:10:08.245Z,8.35
2023-02-19T23:12:11.256Z,8.52
2023-02-19T23:14:13.812Z,7.78
2023-02-19T23:16:15.866Z,7.70
2023-02-19T23:18:17.630Z,7.70
2023-02-19T23:20:19.320Z,8.38
2023-02-19T23:22:21.001Z,8.05
2023-02-19T23:24:22.580Z,7.93
2023-02-19T23:26:24.237Z,8.73
2023-02-19T23:28:25.913Z,8.13
2023-02-19T23:30:27.537Z,8.07
2023-02-19T23:32:29.188Z,8.00
2023-02-19T23:34:30.849Z,8.32
2023-02-19T23:36:32.417Z,7.68
2023-02-19T23:38:34.104Z,7.78
2023-02-19T23:40:35.996Z,8.50
2023-02-19T23:42:37.705Z,8.05
2023-02-19T23:44:39.263Z,8.40
2023-02-19T23:46:40.852Z,8.40
2023-02-19T23:48:42.585Z,8.20
2023-02-19T23:50:44.159Z,8.48
2023-02-19T23:52:45.758Z,8.32
2023-02-19T23:54:47.416Z,8.48
2023-02-19T23:56:48.995Z,9.30
2023-02-19T23:58:50.814Z,8.10
